createdAt,value
2019-06-20T00:01:28.973Z,2.03
2019-06-20T00:03:58.241Z,1.63
2019-06-20T00:06:28.074Z,1.80
2019-06-20T00:08:57.700Z,1.90
2019-06-20T00:11:27.224Z,1.80
2019-06-20T00:13:56.583Z,2.40
2019-06-20T00:16:26.021Z,2.20
2019-06-20T00:18:55.367Z,2.50
2019-06-20T00:21:24.668Z,2.47
2019-06-20T00:23:56.487Z,2.13
2019-06-20T00:26:26.715Z,2.23
2019-06-20T00:28:56.365Z,2.27
2019-06-20T00:31:26.385Z,3.20
2019-06-20T00:33:59.860Z,2.37
2019-06-20T00:36:29.208Z,2.30
2019-06-20T00:38:58.477Z,3.13
2019-06-20T00:41:27.814Z,4.20
2019-06-20T00:43:57.081Z,4.43
2019-06-20T00:46:26.353Z,3.83
2019-06-20T00:48:56.237Z,4.30
2019-06-20T00:51:27.570Z,4.70
2019-06-20T00:53:56.865Z,4.53
2019-06-20T00:56:26.157Z,4.87
2019-06-20T00:58:55.421Z,4.33
2019-06-20T01:01:24.741Z,5.43
2019-06-20T01:03:54.255Z,5.17
2019-06-20T01:06:23.842Z,4.90
2019-06-20T01:08:53.144Z,5.03
2019-06-20T01:11:22.450Z,7.07
2019-06-20T01:13:52.863Z,7.20
2019-06-20T01:16:25.413Z,7.37
2019-06-20T01:18:56.620Z,8.50
2019-06-20T01:21:25.901Z,8.50
2019-06-20T01:23:56.303Z,8.50
2019-06-20T01:26:25.941Z,7.97
2019-06-20T01:28:55.516Z,8.83
2019-06-20T01:31:25.116Z,9.70
2019-06-20T01:33:54.659Z,9.57
2019-06-20T01:36:23.985Z,8.70
2019-06-20T01:38:56.612Z,9.80
2019-06-20T01:41:25.923Z,10.10
2019-06-20T01:43:55.223Z,10.07
2019-06-20T01:46:24.498Z,11.07
2019-06-20T01:48:53.835Z,9.87
2019-06-20T01:51:23.130Z,12.17
2019-06-20T01:53:52.820Z,13.80
2019-06-20T01:56:23.341Z,13.77
2019-06-20T01:58:52.553Z,15.13
2019-06-20T02:01:22.370Z,14.67
2019-06-20T02:03:51.762Z,16.40
2019-06-20T02:06:21.081Z,17.90
2019-06-20T02:08:52.454Z,18.67
2019-06-20T02:11:21.761Z,19.30
2019-06-20T02:14:06.509Z,18.77
2019-06-20T02:16:22.419Z,19.40
2019-06-20T02:18:53.738Z,18.97
2019-06-20T02:21:23.728Z,20.10
2019-06-20T02:23:53.048Z,20.40
2019-06-20T02:26:22.762Z,20.40
2019-06-20T02:28:52.076Z,19.97
2019-06-20T02:31:21.378Z,22.13
2019-06-20T02:33:51.113Z,19.60
2019-06-20T02:36:20.458Z,22.43
2019-06-20T02:38:50.133Z,21.37
2019-06-20T02:41:19.835Z,21.57
2019-06-20T02:43:49.981Z,22.27
2019-06-20T02:46:19.359Z,21.77
2019-06-20T02:48:48.652Z,21.10
2019-06-20T02:51:19.377Z,21.23
2019-06-20T02:53:49.754Z,19.87
2019-06-20T02:56:19.120Z,20.90
2019-06-20T02:58:49.113Z,23.03
2019-06-20T03:01:19.665Z,22.43
2019-06-20T03:03:49.275Z,22.70
2019-06-20T03:06:18.632Z,21.80
2019-06-20T03:08:47.925Z,22.07
2019-06-20T03:11:17.225Z,22.20
2019-06-20T03:13:46.477Z,20.57
2019-06-20T03:16:15.837Z,20.20
2019-06-20T03:18:45.201Z,19.40
2019-06-20T03:21:14.426Z,23.67
2019-06-20T03:23:43.724Z,22.40
2019-06-20T03:26:13.104Z,26.50
2019-06-20T03:28:42.388Z,24.70
2019-06-20T03:31:11.707Z,26.43
2019-06-20T03:33:40.999Z,25.23
2019-06-20T03:36:10.284Z,25.60
2019-06-20T03:38:39.556Z,25.07
2019-06-20T03:41:08.868Z,23.20
2019-06-20T03:43:38.163Z,25.17
2019-06-20T03:46:07.527Z,20.40
2019-06-20T03:48:36.803Z,22.73
2019-06-20T03:51:06.098Z,20.40
2019-06-20T03:53:35.387Z,19.47
2019-06-20T03:56:04.690Z,20.80
2019-06-20T03:58:33.968Z,19.00
2019-06-20T04:01:04.876Z,19.67
2019-06-20T04:03:34.893Z,18.80
2019-06-20T04:06:04.221Z,16.50
2019-06-20T04:08:34.198Z,17.07
2019-06-20T04:11:04.624Z,15.60
2019-06-20T04:13:33.916Z,15.97
2019-06-20T04:16:04.525Z,14.30
2019-06-20T04:18:33.816Z,15.10
2019-06-20T04:21:03.536Z,13.77
2019-06-20T04:23:32.809Z,14.13
2019-06-20T04:26:02.120Z,13.03
2019-06-20T04:28:31.879Z,12.67
2019-06-20T04:31:01.159Z,12.67
2019-06-20T04:33:38.019Z,14.17
2019-06-20T04:36:02.759Z,12.80
2019-06-20T04:38:34.760Z,13.90
2019-06-20T04:41:07.387Z,12.47
2019-06-20T04:43:36.696Z,13.90
2019-06-20T04:46:17.916Z,12.73
2019-06-20T04:48:47.194Z,12.90
2019-06-20T04:51:16.482Z,12.20
2019-06-20T04:53:45.805Z,11.70
2019-06-20T04:56:15.163Z,15.90
2019-06-20T04:58:44.475Z,14.63
2019-06-20T05:01:15.273Z,14.73
2019-06-20T05:03:44.616Z,14.60
2019-06-20T05:06:13.928Z,14.37
2019-06-20T05:08:44.506Z,15.90
2019-06-20T05:11:15.389Z,15.73
2019-06-20T05:13:46.521Z,15.00
2019-06-20T05:16:16.074Z,16.13
2019-06-20T05:18:45.653Z,15.07
2019-06-20T05:21:16.736Z,15.20
2019-06-20T05:23:46.576Z,16.53
2019-06-20T05:26:15.916Z,15.60
2019-06-20T05:28:45.280Z,15.07
2019-06-20T05:31:15.160Z,15.90
2019-06-20T05:33:44.540Z,16.37
2019-06-20T05:36:13.888Z,15.77
2019-06-20T05:38:43.521Z,15.20
2019-06-20T05:41:12.892Z,15.40
2019-06-20T05:43:42.196Z,16.90
2019-06-20T05:46:11.485Z,15.27
2019-06-20T05:48:40.874Z,16.30
2019-06-20T05:51:10.192Z,14.77
2019-06-20T05:53:39.564Z,15.10
2019-06-20T05:56:08.924Z,14.60
2019-06-20T05:58:39.605Z,16.47
2019-06-20T06:01:08.931Z,17.30
2019-06-20T06:03:38.490Z,16.03
2019-06-20T06:06:07.777Z,15.57
2019-06-20T06:08:37.120Z,15.10
2019-06-20T06:11:06.822Z,15.20
2019-06-20T06:13:36.238Z,15.60
2019-06-20T06:16:05.647Z,15.17
2019-06-20T06:18:34.942Z,15.70
2019-06-20T06:21:04.333Z,15.03
2019-06-20T06:23:33.653Z,15.30
2019-06-20T06:26:02.937Z,14.53
2019-06-20T06:28:32.255Z,16.10
2019-06-20T06:31:01.557Z,13.70
2019-06-20T06:33:33.274Z,13.90
2019-06-20T06:36:02.580Z,14.70
2019-06-20T06:38:31.888Z,15.73
2019-06-20T06:41:01.450Z,16.77
2019-06-20T06:43:30.789Z,13.07
2019-06-20T06:46:02.525Z,12.67
2019-06-20T06:48:31.947Z,14.07
2019-06-20T06:51:01.454Z,13.50
2019-06-20T06:53:31.218Z,14.23
2019-06-20T06:56:00.492Z,13.90
2019-06-20T06:58:29.780Z,11.60
2019-06-20T07:01:00.395Z,14.10
2019-06-20T07:03:29.713Z,12.33
2019-06-20T07:05:59.177Z,13.70
2019-06-20T07:08:31.741Z,13.47
2019-06-20T07:11:01.065Z,13.40
2019-06-20T07:13:30.358Z,12.03
2019-06-20T07:15:59.780Z,13.47
2019-06-20T07:18:31.436Z,13.23
2019-06-20T07:21:00.795Z,13.53
2019-06-20T07:23:30.519Z,12.37
2019-06-20T07:25:59.855Z,13.67
2019-06-20T07:28:32.516Z,12.63
2019-06-20T07:31:04.989Z,13.60
2019-06-20T07:33:34.309Z,13.87
2019-06-20T07:36:03.729Z,15.20
2019-06-20T07:38:33.049Z,12.90
2019-06-20T07:41:02.389Z,13.73
2019-06-20T07:43:32.082Z,13.70
2019-06-20T07:46:03.180Z,12.87
2019-06-20T07:48:33.612Z,10.83
2019-06-20T07:51:02.991Z,11.73
2019-06-20T07:53:32.644Z,12.50
2019-06-20T07:56:02.397Z,11.90
2019-06-20T07:58:32.093Z,11.97
2019-06-20T08:01:01.450Z,10.83
2019-06-20T08:03:31.128Z,11.60
2019-06-20T08:06:02.029Z,12.47
2019-06-20T08:08:31.729Z,14.30
2019-06-20T08:11:02.719Z,12.07
2019-06-20T08:13:32.090Z,10.27
2019-06-20T08:16:03.816Z,11.77
2019-06-20T08:18:33.109Z,9.97
2019-06-20T08:21:02.498Z,10.87
2019-06-20T08:23:31.877Z,11.27
2019-06-20T08:26:02.438Z,10.00
2019-06-20T08:28:36.452Z,9.60
2019-06-20T08:31:06.802Z,10.40
2019-06-20T08:33:36.484Z,10.20
2019-06-20T08:36:06.692Z,11.50
2019-06-20T08:38:37.161Z,10.17
2019-06-20T08:41:06.978Z,12.13
2019-06-20T08:43:36.509Z,9.03
2019-06-20T08:46:10.044Z,8.73
2019-06-20T08:48:37.062Z,8.47
2019-06-20T08:51:06.602Z,7.60
2019-06-20T08:53:46.657Z,8.50
2019-06-20T08:56:18.950Z,7.17
2019-06-20T08:58:48.283Z,7.50
2019-06-20T09:01:17.645Z,6.73
2019-06-20T09:03:49.437Z,7.30
2019-06-20T09:06:18.788Z,8.07
2019-06-20T09:08:48.174Z,8.30
2019-06-20T09:11:17.476Z,7.90
2019-06-20T09:13:47.258Z,8.37
2019-06-20T09:16:24.554Z,8.43
2019-06-20T09:18:50.142Z,7.67
2019-06-20T09:21:19.400Z,8.33
2019-06-20T09:23:48.711Z,8.90
2019-06-20T09:26:18.017Z,9.17
2019-06-20T09:28:47.757Z,7.23
2019-06-20T09:31:19.710Z,8.07
2019-06-20T09:33:49.041Z,5.70
2019-06-20T09:36:18.401Z,6.03
2019-06-20T09:38:47.695Z,5.47
2019-06-20T09:41:16.981Z,6.70
2019-06-20T09:43:46.279Z,6.00
2019-06-20T09:46:16.848Z,5.70
2019-06-20T09:48:46.228Z,7.23
2019-06-20T09:51:15.531Z,10.43
2019-06-20T09:53:48.401Z,9.87
2019-06-20T09:56:15.932Z,13.30
2019-06-20T09:58:45.252Z,12.20
2019-06-20T10:01:14.955Z,14.03
2019-06-20T10:03:44.236Z,12.20
2019-06-20T10:06:14.732Z,12.97
2019-06-20T10:08:44.172Z,13.37
2019-06-20T10:11:13.587Z,13.70
2019-06-20T10:13:43.112Z,12.47
2019-06-20T10:16:12.419Z,12.80
2019-06-20T10:18:41.725Z,12.73
2019-06-20T10:21:11.024Z,12.00
2019-06-20T10:23:40.310Z,12.10
2019-06-20T10:26:12.902Z,12.07
2019-06-20T10:28:42.233Z,12.33
2019-06-20T10:31:11.645Z,9.73
2019-06-20T10:33:41.416Z,9.83
2019-06-20T10:36:10.764Z,9.67
2019-06-20T10:38:40.078Z,10.60
2019-06-20T10:41:09.444Z,9.27
2019-06-20T10:43:38.751Z,8.63
2019-06-20T10:46:08.357Z,9.97
2019-06-20T10:48:37.684Z,7.17
2019-06-20T10:51:24.658Z,9.07
2019-06-20T10:53:54.209Z,11.80
2019-06-20T10:56:23.574Z,10.13
2019-06-20T10:58:54.290Z,9.87
2019-06-20T11:01:24.182Z,11.90
2019-06-20T11:03:54.030Z,10.20
2019-06-20T11:06:23.335Z,11.03
2019-06-20T11:08:52.656Z,12.20
2019-06-20T11:11:22.055Z,12.23
2019-06-20T11:13:51.342Z,14.53
2019-06-20T11:16:21.738Z,12.03
2019-06-20T11:18:51.133Z,12.70
2019-06-20T11:21:20.454Z,12.37
2019-06-20T11:23:49.716Z,12.03
2019-06-20T11:26:19.027Z,11.40
2019-06-20T11:28:48.714Z,10.20
2019-06-20T11:31:18.085Z,11.03
2019-06-20T11:33:48.409Z,10.97
2019-06-20T11:36:18.251Z,11.77
2019-06-20T11:38:49.876Z,11.73
2019-06-20T11:41:19.211Z,11.10
2019-06-20T11:43:48.528Z,10.87
2019-06-20T11:46:19.628Z,12.90
2019-06-20T11:48:48.904Z,11.77
2019-06-20T11:51:18.409Z,12.27
2019-06-20T11:53:47.723Z,13.13
2019-06-20T11:56:19.797Z,13.70
2019-06-20T11:58:49.128Z,18.17
2019-06-20T12:01:32.501Z,17.50
2019-06-20T12:03:52.238Z,16.10
2019-06-20T12:06:21.518Z,16.03
2019-06-20T12:08:52.558Z,14.47
2019-06-20T12:11:21.886Z,16.63
2019-06-20T12:13:51.279Z,17.90
2019-06-20T12:16:20.575Z,16.53
2019-06-20T12:18:51.519Z,17.70
2019-06-20T12:21:20.908Z,15.87
2019-06-20T12:23:50.261Z,16.13
2019-06-20T12:26:19.553Z,15.87
2019-06-20T12:28:48.872Z,14.40
2019-06-20T12:31:19.785Z,17.30
2019-06-20T12:33:50.267Z,16.07
2019-06-20T12:36:19.546Z,16.87
2019-06-20T12:38:48.965Z,16.80
2019-06-20T12:41:18.698Z,16.50
2019-06-20T12:43:50.067Z,19.27
2019-06-20T12:46:19.028Z,17.03
2019-06-20T12:48:49.172Z,15.30
2019-06-20T12:51:19.801Z,14.83
2019-06-20T12:53:50.841Z,13.50
2019-06-20T12:56:21.974Z,15.20
2019-06-20T12:58:53.842Z,14.50
2019-06-20T13:01:35.558Z,13.87
2019-06-20T13:03:54.240Z,15.27
2019-06-20T13:06:23.604Z,13.90
2019-06-20T13:08:53.027Z,13.33
2019-06-20T13:11:24.707Z,12.50
2019-06-20T13:13:54.031Z,12.27
2019-06-20T13:16:25.481Z,12.63
2019-06-20T13:18:54.805Z,12.10
2019-06-20T13:21:24.404Z,9.60
2019-06-20T13:23:54.105Z,7.83
2019-06-20T13:26:23.409Z,10.13
2019-06-20T13:29:03.335Z,9.77
2019-06-20T13:31:24.129Z,8.00
2019-06-20T13:33:53.424Z,7.10
2019-06-20T13:36:25.465Z,7.97
2019-06-20T13:38:54.819Z,7.40
2019-06-20T13:41:25.507Z,8.80
2019-06-20T13:43:56.211Z,8.37
2019-06-20T13:46:26.424Z,9.30
2019-06-20T13:48:55.773Z,8.13
2019-06-20T13:51:25.081Z,7.80
2019-06-20T13:53:54.690Z,8.23
2019-06-20T13:56:23.989Z,8.20
2019-06-20T13:58:54.142Z,6.60
2019-06-20T14:01:23.841Z,8.40
2019-06-20T14:03:53.495Z,7.43
2019-06-20T14:06:23.138Z,6.90
2019-06-20T14:08:52.608Z,6.63
2019-06-20T14:11:22.029Z,8.80
2019-06-20T14:13:53.079Z,8.20
2019-06-20T14:16:22.910Z,9.90
2019-06-20T14:18:52.209Z,8.63
2019-06-20T14:21:21.559Z,7.83
2019-06-20T14:23:50.857Z,8.63
2019-06-20T14:26:20.172Z,6.47
2019-06-20T14:28:50.989Z,8.70
2019-06-20T14:31:20.548Z,7.70
2019-06-20T14:33:50.720Z,8.27
2019-06-20T14:36:20.469Z,7.80
2019-06-20T14:38:51.482Z,9.63
2019-06-20T14:41:20.845Z,8.70
2019-06-20T14:43:53.931Z,9.07
2019-06-20T14:46:23.996Z,9.03
2019-06-20T14:48:56.237Z,8.17
2019-06-20T14:51:25.588Z,8.90
2019-06-20T14:53:54.890Z,9.30
2019-06-20T14:56:24.203Z,9.20
2019-06-20T14:58:53.813Z,9.20
2019-06-20T15:01:23.646Z,8.87
2019-06-20T15:03:53.833Z,7.70
2019-06-20T15:06:25.154Z,7.60
2019-06-20T15:09:03.500Z,8.50
2019-06-20T15:11:26.236Z,7.30
2019-06-20T15:13:55.557Z,8.40
2019-06-20T15:16:25.206Z,8.70
2019-06-20T15:18:57.903Z,7.47
2019-06-20T15:21:27.243Z,8.13
2019-06-20T15:23:57.133Z,8.80
2019-06-20T15:26:26.444Z,7.70
2019-06-20T15:28:57.104Z,7.40
2019-06-20T15:31:26.545Z,7.37
2019-06-20T15:33:57.219Z,7.30
2019-06-20T15:36:26.695Z,7.50
2019-06-20T15:38:57.254Z,5.97
2019-06-20T15:41:26.704Z,6.60
2019-06-20T15:43:57.624Z,5.70
2019-06-20T15:46:30.421Z,6.27
2019-06-20T15:49:15.397Z,6.00
2019-06-20T15:51:33.287Z,5.40
2019-06-20T15:54:02.585Z,6.30
2019-06-20T15:56:32.544Z,5.70
2019-06-20T15:59:01.923Z,6.63
2019-06-20T16:01:31.212Z,6.10
2019-06-20T16:04:00.489Z,6.63
2019-06-20T16:06:29.799Z,6.30
2019-06-20T16:08:59.106Z,6.17
2019-06-20T16:11:28.456Z,6.10
2019-06-20T16:13:58.129Z,7.10
2019-06-20T16:16:29.523Z,5.70
2019-06-20T16:18:59.021Z,5.37
2019-06-20T16:21:31.619Z,4.97
2019-06-20T16:24:00.985Z,6.73
2019-06-20T16:26:30.373Z,11.83
2019-06-20T16:28:59.946Z,8.13
2019-06-20T16:31:29.223Z,6.77
2019-06-20T16:33:58.606Z,6.10
2019-06-20T16:36:29.618Z,5.67
2019-06-20T16:38:59.321Z,5.20
2019-06-20T16:41:28.597Z,5.03
2019-06-20T16:43:57.904Z,5.00
2019-06-20T16:46:27.937Z,4.37
2019-06-20T16:48:57.322Z,4.90
2019-06-20T16:51:27.343Z,4.07
2019-06-20T16:53:56.982Z,4.70
2019-06-20T16:56:32.684Z,4.00
2019-06-20T16:59:02.533Z,3.80
2019-06-20T17:01:32.248Z,3.70
2019-06-20T17:04:01.909Z,3.73
2019-06-20T17:06:33.625Z,3.87
2019-06-20T17:09:02.333Z,3.60
2019-06-20T17:11:31.942Z,3.90
2019-06-20T17:14:01.270Z,3.13
2019-06-20T17:16:30.541Z,3.70
2019-06-20T17:18:59.846Z,2.93
2019-06-20T17:21:29.496Z,3.93
2019-06-20T17:24:01.049Z,3.10
2019-06-20T17:26:30.475Z,3.30
2019-06-20T17:29:00.310Z,3.00
2019-06-20T17:31:29.578Z,2.73
2019-06-20T17:33:58.907Z,2.90
2019-06-20T17:36:28.210Z,3.60
2019-06-20T17:38:57.592Z,3.50
2019-06-20T17:41:26.892Z,2.97
2019-06-20T17:43:58.611Z,3.70
2019-06-20T17:46:27.917Z,3.63
2019-06-20T17:49:01.286Z,3.33
2019-06-20T17:51:30.679Z,6.17
2019-06-20T17:54:00.312Z,6.20
2019-06-20T17:56:29.677Z,6.10
2019-06-20T17:58:59.409Z,7.30
2019-06-20T18:01:29.118Z,7.60
2019-06-20T18:04:12.842Z,8.20
2019-06-20T18:06:30.529Z,8.10
2019-06-20T18:08:59.848Z,8.03
2019-06-20T18:11:29.253Z,8.20
2019-06-20T18:13:59.646Z,7.87
2019-06-20T18:16:29.021Z,10.03
2019-06-20T18:18:58.634Z,8.57
2019-06-20T18:21:27.918Z,7.60
2019-06-20T18:23:59.988Z,9.03
2019-06-20T18:26:29.274Z,8.80
2019-06-20T18:28:58.665Z,7.30
2019-06-20T18:31:28.122Z,8.00
2019-06-20T18:33:57.430Z,7.93
2019-06-20T18:36:26.775Z,8.37
2019-06-20T18:38:56.118Z,7.40
2019-06-20T18:41:25.430Z,7.33
2019-06-20T18:43:54.696Z,7.97
2019-06-20T18:46:24.052Z,7.37
2019-06-20T18:48:53.685Z,6.50
2019-06-20T18:51:23.292Z,7.70
2019-06-20T18:53:52.652Z,6.73
2019-06-20T18:56:22.037Z,7.03
2019-06-20T18:58:53.256Z,7.80
2019-06-20T19:01:23.510Z,7.37
2019-06-20T19:03:52.906Z,6.90
2019-06-20T19:06:35.359Z,8.30
2019-06-20T19:08:54.886Z,8.10
2019-06-20T19:11:24.474Z,8.83
2019-06-20T19:13:53.778Z,7.67
2019-06-20T19:16:25.545Z,8.97
2019-06-20T19:18:54.834Z,8.27
2019-06-20T19:21:24.742Z,7.87
2019-06-20T19:23:55.384Z,8.40
2019-06-20T19:26:25.255Z,8.67
2019-06-20T19:28:54.585Z,9.17
2019-06-20T19:31:24.270Z,7.67
2019-06-20T19:33:54.021Z,7.60
2019-06-20T19:36:23.683Z,8.53
2019-06-20T19:38:53.421Z,9.57
2019-06-20T19:41:22.760Z,8.57
2019-06-20T19:43:52.151Z,8.80
2019-06-20T19:46:22.541Z,8.73
2019-06-20T19:48:52.286Z,8.00
2019-06-20T19:51:22.196Z,9.17
2019-06-20T19:53:51.487Z,7.60
2019-06-20T19:56:20.794Z,6.97
2019-06-20T19:58:50.138Z,8.40
2019-06-20T20:01:19.520Z,7.23
2019-06-20T20:03:48.818Z,7.80
2019-06-20T20:06:18.112Z,7.70
2019-06-20T20:08:47.491Z,8.33
2019-06-20T20:11:23.432Z,7.83
2019-06-20T20:13:52.848Z,7.13
2019-06-20T20:16:22.127Z,8.03
2019-06-20T20:18:51.450Z,8.37
2019-06-20T20:21:21.037Z,9.13
2019-06-20T20:23:50.332Z,8.47
2019-06-20T20:26:19.671Z,8.30
2019-06-20T20:28:49.508Z,8.70
2019-06-20T20:31:18.852Z,7.50
2019-06-20T20:33:48.255Z,8.60
2019-06-20T20:36:24.827Z,8.60
2019-06-20T20:38:48.577Z,8.50
2019-06-20T20:41:18.224Z,9.40
2019-06-20T20:43:47.621Z,10.10
2019-06-20T20:46:16.930Z,9.33
2019-06-20T20:48:46.598Z,9.37
2019-06-20T20:51:16.259Z,11.03
2019-06-20T20:53:45.568Z,8.93
2019-06-20T20:56:14.885Z,10.00
2019-06-20T20:58:44.290Z,10.00
2019-06-20T21:01:25.659Z,8.90
2019-06-20T21:03:55.931Z,10.60
2019-06-20T21:06:25.326Z,9.10
2019-06-20T21:08:54.690Z,9.67
2019-06-20T21:11:24.980Z,9.10
2019-06-20T21:13:54.282Z,9.13
2019-06-20T21:16:23.567Z,8.87
2019-06-20T21:18:52.857Z,9.47
2019-06-20T21:21:22.557Z,9.17
2019-06-20T21:23:52.721Z,9.83
2019-06-20T21:26:22.094Z,10.37
2019-06-20T21:28:52.034Z,8.37
2019-06-20T21:31:22.177Z,8.80
2019-06-20T21:33:54.296Z,6.50
2019-06-20T21:36:22.889Z,5.37
2019-06-20T21:38:53.246Z,4.80
2019-06-20T21:41:22.569Z,4.77
2019-06-20T21:43:51.860Z,4.70
2019-06-20T21:46:21.156Z,4.23
2019-06-20T21:48:50.930Z,3.80
2019-06-20T21:51:20.317Z,3.90
2019-06-20T21:53:49.939Z,3.87
2019-06-20T21:56:19.241Z,3.53
2019-06-20T21:58:48.509Z,3.00
2019-06-20T22:01:18.962Z,2.90
2019-06-20T22:03:48.265Z,3.07
2019-06-20T22:06:23.683Z,3.10
2019-06-20T22:08:50.673Z,3.10
2019-06-20T22:11:19.992Z,3.03
2019-06-20T22:13:50.479Z,3.90
2019-06-20T22:16:19.848Z,2.63
2019-06-20T22:18:49.133Z,3.33
2019-06-20T22:21:18.413Z,3.30
2019-06-20T22:23:47.954Z,3.70
2019-06-20T22:26:17.470Z,3.30
2019-06-20T22:28:46.818Z,3.07
2019-06-20T22:31:16.163Z,3.23
2019-06-20T22:33:45.455Z,2.73
2019-06-20T22:36:14.762Z,2.57
2019-06-20T22:38:45.983Z,3.27
2019-06-20T22:41:15.278Z,2.60
2019-06-20T22:43:46.589Z,2.60
2019-06-20T22:46:15.869Z,2.70
2019-06-20T22:48:45.642Z,2.00
2019-06-20T22:51:14.964Z,2.97
2019-06-20T22:53:44.650Z,2.50
2019-06-20T22:56:13.951Z,2.90
2019-06-20T22:58:43.325Z,2.57
2019-06-20T23:01:12.795Z,2.60
2019-06-20T23:03:42.090Z,2.50
2019-06-20T23:06:11.343Z,2.27
2019-06-20T23:08:40.674Z,2.03
2019-06-20T23:11:09.969Z,3.20
2019-06-20T23:13:39.308Z,2.33
2019-06-20T23:16:08.603Z,2.07
2019-06-20T23:18:38.966Z,2.03
2019-06-20T23:21:08.252Z,2.30
2019-06-20T23:23:37.905Z,2.50
2019-06-20T23:26:09.033Z,2.80
2019-06-20T23:28:38.844Z,2.57
2019-06-20T23:31:08.229Z,2.40
2019-06-20T23:33:37.865Z,2.40
2019-06-20T23:36:07.212Z,2.10
2019-06-20T23:38:36.499Z,2.10
2019-06-20T23:41:08.140Z,2.87
2019-06-20T23:43:37.697Z,2.10
2019-06-20T23:46:07.060Z,2.33
2019-06-20T23:48:36.368Z,2.27
2019-06-20T23:51:05.646Z,3.20
2019-06-20T23:53:42.176Z,3.20
2019-06-20T23:56:11.709Z,2.20
2019-06-20T23:58:41.012Z,2.30
